Time;durP1;ratioP1;P1;durP2;ratioP2;P2;SDS_P1;SDS_P2;PMS_P1;PMS_P2;Temp;Humidity;BMP_temperature;BMP_pressure;BME280_temperature;BME280_humidity;BME280_pressure;Samples;Min_cycle;Max_cycle;Signal;HPM_P1;HPM_P2
2023/06/10 00:01:07;;;;;;;18.35;12.90;;;;;;;20.94;58.67;101626.69;6101736;19;20086;-72
2023/06/10 00:03:12;;;;;;;16.77;12.27;;;;;;;20.91;58.42;101621.56;6101596;19;20014;-73
2023/06/10 00:05:22;;;;;;;16.77;11.30;;;;;;;20.87;58.51;101620.06;6100463;19;20104;-74
2023/06/10 00:07:27;;;;;;;19.35;13.43;;;;;;;20.86;58.85;101620.19;6101660;19;20664;-72
2023/06/10 00:09:32;;;;;;;16.05;12.15;;;;;;;20.78;58.80;101618.06;6102781;19;20014;-72
2023/06/10 00:11:37;;;;;;;17.40;12.20;;;;;;;20.72;58.96;101622.03;6097721;19;20038;-74
2023/06/10 00:13:45;;;;;;;15.23;12.10;;;;;;;20.67;58.85;101636.66;6099427;19;20007;-74
2023/06/10 00:15:50;;;;;;;16.95;12.02;;;;;;;20.66;59.44;101626.94;6100172;19;20014;-74
2023/06/10 00:17:58;;;;;;;18.10;11.70;;;;;;;20.60;59.28;101633.56;6099401;19;20319;-74
2023/06/10 00:20:04;;;;;;;15.68;12.15;;;;;;;20.61;58.98;101632.59;6098334;19;20014;-72
2023/06/10 00:22:10;;;;;;;14.02;11.05;;;;;;;20.54;59.67;101632.19;6098313;19;20007;-73
2023/06/10 00:24:15;;;;;;;15.63;11.68;;;;;;;20.51;59.29;101628.84;6099639;19;20639;-73
2023/06/10 00:26:22;;;;;;;14.13;12.00;;;;;;;20.45;59.15;101622.09;6101769;19;20011;-73
2023/06/10 00:28:27;;;;;;;16.00;11.93;;;;;;;20.41;59.72;101625.97;6099082;19;20026;-72
2023/06/10 00:30:34;;;;;;;16.65;11.57;;;;;;;20.33;60.12;101620.31;6100247;19;20341;-74
2023/06/10 00:32:40;;;;;;;17.63;11.40;;;;;;;20.28;60.01;101627.78;6102581;19;20010;-74
2023/06/10 00:34:45;;;;;;;15.57;11.45;;;;;;;20.26;60.32;101627.03;6099880;19;20562;-73
2023/06/10 00:36:51;;;;;;;16.48;12.00;;;;;;;20.29;60.02;101630.31;6101310;19;20017;-73
2023/06/10 00:38:56;;;;;;;14.45;11.13;;;;;;;20.32;59.73;101624.78;6098735;19;20518;-73
2023/06/10 00:41:01;;;;;;;14.10;11.23;;;;;;;20.21;60.21;101626.50;6100149;19;20499;-73
2023/06/10 00:43:07;;;;;;;14.93;11.82;;;;;;;20.21;59.88;101622.00;6101851;19;20413;-72
2023/06/10 00:45:12;;;;;;;18.00;11.90;;;;;;;20.16;60.16;101627.63;6101396;19;20410;-72
2023/06/10 00:47:21;;;;;;;14.48;10.75;;;;;;;20.11;60.10;101634.25;6099745;19;20014;-74
2023/06/10 00:49:27;;;;;;;14.43;10.98;;;;;;;20.03;60.33;101629.44;6099422;19;20002;-74
2023/06/10 00:51:32;;;;;;;14.50;10.98;;;;;;;20.04;60.43;101625.81;6097432;19;20003;-72
2023/06/10 00:53:39;;;;;;;14.70;11.35;;;;;;;20.01;60.46;101628.72;6092653;19;20879;-72
2023/06/10 00:55:45;;;;;;;14.48;11.07;;;;;;;20.00;60.55;101629.66;6098270;19;20018;-73
2023/06/10 00:57:51;;;;;;;13.05;10.55;;;;;;;20.00;60.50;101631.47;6099043;19;20003;-73
2023/06/10 00:59:59;;;;;;;17.17;11.50;;;;;;;20.01;60.34;101634.03;6098415;19;20002;-73
2023/06/10 01:02:06;;;;;;;15.38;11.18;;;;;;;19.95;60.44;101631.78;6096666;19;20114;-73
2023/06/10 01:04:17;;;;;;;14.75;10.57;;;;;;;19.88;60.84;101630.47;6098282;19;20011;-73
2023/06/10 01:06:39;;;;;;;17.40;11.32;;;;;;;19.88;60.78;101639.34;6097443;19;20078;-72
2023/06/10 01:08:55;;;;;;;14.43;11.10;;;;;;;19.83;60.96;101625.47;6100038;19;20434;-73
2023/06/10 01:11:04;;;;;;;14.77;10.80;;;;;;;19.78;61.16;101632.91;6100135;19;20027;-73
2023/06/10 01:13:12;;;;;;;15.48;10.90;;;;;;;19.79;60.92;101625.75;6096707;19;20023;-73
2023/06/10 01:15:19;;;;;;;13.52;10.30;;;;;;;19.74;60.91;101632.25;6100076;19;20014;-73
2023/06/10 01:17:26;;;;;;;16.73;12.10;;;;;;;19.67;61.35;101636.31;6097342;19;20023;-73
2023/06/10 01:19:36;;;;;;;17.38;11.38;;;;;;;19.65;61.30;101632.84;6100545;19;20525;-73
2023/06/10 01:21:48;;;;;;;14.57;10.57;;;;;;;19.62;61.24;101629.53;6102889;19;20483;-74
2023/06/10 01:23:55;;;;;;;17.48;10.93;;;;;;;19.56;61.35;101628.09;6101064;19;20471;-73
2023/06/10 01:26:04;;;;;;;15.50;10.70;;;;;;;19.54;61.75;101635.38;6097033;19;20014;-72
2023/06/10 01:28:16;;;;;;;13.70;10.32;;;;;;;19.52;61.67;101638.13;6097660;19;20006;-73
2023/06/10 01:30:25;;;;;;;16.77;10.73;;;;;;;19.45;61.93;101633.28;6097006;19;20010;-72
2023/06/10 01:32:45;;;;;;;15.32;10.65;;;;;;;19.40;62.12;101633.56;6100959;19;20488;-72
2023/06/10 01:34:52;;;;;;;17.38;11.43;;;;;;;19.37;62.20;101632.94;6098742;19;20336;-72
2023/06/10 01:37:01;;;;;;;15.90;10.40;;;;;;;19.35;62.26;101622.34;6098750;19;20010;-71
2023/06/10 01:39:07;;;;;;;15.02;10.23;;;;;;;19.33;62.58;101628.78;6099095;19;20006;-71
2023/06/10 01:41:14;;;;;;;14.82;10.93;;;;;;;19.26;62.52;101625.63;6101197;19;20006;-72
2023/06/10 01:43:21;;;;;;;16.48;11.10;;;;;;;19.22;62.90;101629.44;6099073;19;20517;-71
2023/06/10 01:45:26;;;;;;;15.77;11.57;;;;;;;19.16;62.80;101630.69;6100196;19;19998;-71
2023/06/10 01:47:32;;;;;;;15.85;11.25;;;;;;;19.17;62.58;101623.53;6099315;19;20042;-72
2023/06/10 01:49:37;;;;;;;16.55;10.65;;;;;;;19.17;62.81;101620.88;6094669;19;20417;-72
2023/06/10 01:51:42;;;;;;;15.30;10.00;;;;;;;19.12;63.11;101634.53;6100579;19;20010;-71
2023/06/10 01:53:50;;;;;;;15.05;10.50;;;;;;;19.10;62.80;101631.09;6095758;19;20002;-72
2023/06/10 01:55:55;;;;;;;14.63;10.60;;;;;;;19.07;63.07;101633.97;6096803;19;20011;-71
2023/06/10 01:58:00;;;;;;;14.40;10.00;;;;;;;19.07;62.86;101633.97;6097012;19;20013;-73
2023/06/10 02:00:06;;;;;;;13.32;9.35;;;;;;;19.00;63.13;101635.28;6091568;19;20011;-70
2023/06/10 02:02:11;;;;;;;13.70;10.15;;;;;;;18.97;63.11;101630.16;6100833;19;20046;-71
2023/06/10 02:04:16;;;;;;;18.23;10.23;;;;;;;18.89;63.26;101629.78;6094441;19;20007;-71
2023/06/10 02:06:21;;;;;;;14.25;9.18;;;;;;;18.85;63.23;101637.97;6100393;19;20504;-72
2023/06/10 02:08:27;;;;;;;17.77;10.10;;;;;;;18.82;63.53;101638.16;6103975;19;20011;-72
2023/06/10 02:10:35;;;;;;;13.30;9.27;;;;;;;18.78;63.32;101633.97;6104056;19;20007;-72
2023/06/10 02:12:40;;;;;;;14.85;9.23;;;;;;;18.74;63.31;101635.06;6101827;19;20441;-71
2023/06/10 02:14:45;;;;;;;16.55;9.40;;;;;;;18.70;63.57;101633.56;6103318;19;20427;-72
2023/06/10 02:16:51;;;;;;;14.32;9.32;;;;;;;18.68;63.83;101632.81;6100477;19;20368;-72
2023/06/10 02:18:57;;;;;;;16.45;9.55;;;;;;;18.67;63.78;101633.78;6101326;19;20002;-71
2023/06/10 02:21:02;;;;;;;14.23;9.30;;;;;;;18.61;63.53;101634.97;6101081;19;20091;-72
2023/06/10 02:23:07;;;;;;;14.90;8.85;;;;;;;18.59;63.77;101642.22;6104585;19;20151;-71
2023/06/10 02:25:12;;;;;;;14.95;8.90;;;;;;;18.54;64.21;101643.47;6103034;19;20502;-72
2023/06/10 02:27:21;;;;;;;14.90;9.05;;;;;;;18.52;63.97;101640.88;6101298;19;20353;-72
2023/06/10 02:29:27;;;;;;;17.52;9.60;;;;;;;18.50;64.29;101641.91;6103116;19;20011;-71
2023/06/10 02:31:35;;;;;;;15.05;8.73;;;;;;;18.53;64.13;101633.75;6105773;19;20027;-71
2023/06/10 02:33:41;;;;;;;14.85;9.35;;;;;;;18.49;64.16;101638.41;6104459;19;20027;-72
2023/06/10 02:35:46;;;;;;;15.63;9.32;;;;;;;18.49;63.95;101642.88;6104937;19;20350;-73
2023/06/10 02:37:53;;;;;;;18.10;10.20;;;;;;;18.45;64.12;101642.19;6103380;19;20010;-72
2023/06/10 02:39:58;;;;;;;17.30;9.38;;;;;;;18.48;63.69;101643.81;6101402;19;20006;-73
2023/06/10 02:42:04;;;;;;;16.23;9.45;;;;;;;18.44;63.79;101645.81;6099514;19;20031;-72
2023/06/10 02:44:11;;;;;;;14.30;8.35;;;;;;;18.43;63.55;101644.09;6101699;19;20023;-71
2023/06/10 02:46:17;;;;;;;15.82;9.88;;;;;;;18.41;63.80;101644.19;6104301;19;20015;-72
2023/06/10 02:48:23;;;;;;;16.52;9.48;;;;;;;18.39;63.50;101640.78;6103954;19;22423;-71
2023/06/10 02:50:28;;;;;;;13.38;9.10;;;;;;;18.39;63.61;101638.09;6102991;19;20017;-73
2023/06/10 02:52:33;;;;;;;15.63;9.55;;;;;;;18.39;63.36;101642.59;6102325;19;20010;-72
2023/06/10 02:54:42;;;;;;;12.73;8.82;;;;;;;18.38;63.27;101639.06;6101388;19;20331;-73
2023/06/10 02:56:47;;;;;;;16.65;9.65;;;;;;;18.40;63.11;101644.28;6101579;19;20134;-73
2023/06/10 02:58:55;;;;;;;15.90;9.35;;;;;;;18.34;63.33;101649.97;6101846;19;20645;-72
2023/06/10 03:01:03;;;;;;;16.25;10.05;;;;;;;18.28;63.49;101651.22;6099804;19;20017;-74
2023/06/10 03:03:10;;;;;;;16.48;9.10;;;;;;;18.28;63.59;101648.56;6101845;19;20070;-74
2023/06/10 03:05:16;;;;;;;18.58;9.32;;;;;;;18.23;63.78;101644.47;6105971;19;20045;-73
2023/06/10 03:07:23;;;;;;;13.65;8.98;;;;;;;18.21;63.65;101642.72;6105533;19;20050;-72
2023/06/10 03:09:29;;;;;;;17.05;9.40;;;;;;;18.24;63.56;101638.19;6101834;19;20027;-73
2023/06/10 03:11:34;;;;;;;14.98;9.00;;;;;;;18.21;63.53;101648.03;6102066;19;20028;-72
2023/06/10 03:13:41;;;;;;;16.20;9.30;;;;;;;18.16;63.61;101642.16;6101839;19;20006;-72
2023/06/10 03:15:46;;;;;;;15.25;9.57;;;;;;;18.12;63.88;101645.94;6103228;19;20007;-74
2023/06/10 03:17:54;;;;;;;16.40;9.60;;;;;;;18.12;63.58;101637.13;6103592;19;20043;-74
2023/06/10 03:20:00;;;;;;;14.82;8.75;;;;;;;18.11;63.70;101643.38;6103418;19;20110;-73
2023/06/10 03:22:12;;;;;;;15.13;8.95;;;;;;;18.08;63.85;101640.91;6099407;19;20051;-72
2023/06/10 03:24:17;;;;;;;15.32;8.63;;;;;;;18.06;63.65;101646.31;6101452;19;20048;-73
2023/06/10 03:26:26;;;;;;;15.05;8.52;;;;;;;18.02;63.87;101652.75;6103562;19;22460;-73
2023/06/10 03:28:32;;;;;;;22.70;10.60;;;;;;;18.01;63.93;101652.84;6101399;19;20017;-73
2023/06/10 03:30:37;;;;;;;16.15;9.02;;;;;;;17.99;64.00;101660.91;6103402;19;20085;-72
2023/06/10 03:32:43;;;;;;;13.35;7.90;;;;;;;17.98;63.68;101656.53;6104137;19;20479;-72
2023/06/10 03:34:51;;;;;;;14.68;9.02;;;;;;;17.94;63.63;101663.84;6099848;19;20007;-74
2023/06/10 03:36:56;;;;;;;14.45;8.10;;;;;;;17.90;63.99;101656.97;6103383;19;20133;-73
2023/06/10 03:39:02;;;;;;;14.55;8.60;;;;;;;17.88;63.97;101664.22;6101650;19;20384;-74
2023/06/10 03:41:07;;;;;;;15.88;8.27;;;;;;;17.85;64.14;101661.72;6101982;19;20003;-72
2023/06/10 03:43:14;;;;;;;16.00;8.60;;;;;;;17.86;64.06;101663.44;6102034;19;20014;-72
2023/06/10 03:45:20;;;;;;;17.83;8.80;;;;;;;17.85;63.95;101661.72;6102540;19;20025;-73
2023/06/10 03:47:25;;;;;;;15.48;8.95;;;;;;;17.80;64.08;101663.81;6100294;19;20069;-72
2023/06/10 03:49:32;;;;;;;15.88;8.02;;;;;;;17.77;64.01;101678.09;6100412;19;20018;-73
2023/06/10 03:51:40;;;;;;;15.30;8.40;;;;;;;17.76;64.27;101675.50;6103878;19;20094;-72
2023/06/10 03:53:45;;;;;;;16.23;8.60;;;;;;;17.80;64.19;101682.41;6097635;19;20113;-73
2023/06/10 03:55:50;;;;;;;16.08;8.80;;;;;;;17.79;63.99;101675.34;6102014;19;20035;-73
2023/06/10 03:57:55;;;;;;;14.32;9.10;;;;;;;17.78;63.78;101674.47;6101528;19;20519;-74
2023/06/10 04:00:03;;;;;;;13.05;7.80;;;;;;;17.80;63.90;101679.75;6099934;19;20031;-74
2023/06/10 04:02:08;;;;;;;16.17;8.65;;;;;;;17.76;63.96;101676.34;6099120;19;20006;-72
2023/06/10 04:04:16;;;;;;;15.35;8.48;;;;;;;17.76;63.72;101681.69;6099100;19;20450;-72
2023/06/10 04:06:22;;;;;;;14.50;7.97;;;;;;;17.81;63.84;101672.63;6100021;19;20017;-72
2023/06/10 04:08:31;;;;;;;15.75;8.20;;;;;;;17.85;63.48;101676.81;6087139;19;20022;-73
2023/06/10 04:10:36;;;;;;;15.77;8.60;;;;;;;17.86;63.25;101673.22;6100407;19;20091;-72
2023/06/10 04:12:41;;;;;;;13.63;7.93;;;;;;;17.89;63.03;101676.53;6099978;19;20023;-72
2023/06/10 04:14:46;;;;;;;15.60;8.18;;;;;;;17.93;63.09;101671.91;6100696;19;20090;-72
2023/06/10 04:16:53;;;;;;;17.80;8.77;;;;;;;17.94;62.55;101681.59;6100198;19;20006;-72
2023/06/10 04:18:58;;;;;;;14.00;8.20;;;;;;;18.01;62.49;101687.41;6101413;19;20133;-73
2023/06/10 04:21:04;;;;;;;16.60;8.68;;;;;;;18.02;62.35;101683.81;6103718;19;20021;-72
2023/06/10 04:23:09;;;;;;;17.42;8.63;;;;;;;18.07;62.09;101687.06;6101119;19;20029;-72
2023/06/10 04:25:17;;;;;;;16.48;8.32;;;;;;;18.15;61.89;101690.13;6103881;19;20007;-72
2023/06/10 04:27:26;;;;;;;17.42;8.77;;;;;;;18.21;61.35;101695.09;6096638;19;20054;-71
2023/06/10 04:29:31;;;;;;;15.85;9.00;;;;;;;18.28;61.44;101692.94;6098341;19;20767;-72
2023/06/10 04:31:36;;;;;;;17.30;8.65;;;;;;;18.36;60.64;101694.19;6102143;19;20046;-72
2023/06/10 04:33:41;;;;;;;15.45;8.10;;;;;;;18.43;60.48;101694.66;6097556;19;20003;-72
2023/06/10 04:35:47;;;;;;;18.52;8.43;;;;;;;18.46;60.37;101691.84;6098563;19;20377;-72
2023/06/10 04:37:55;;;;;;;17.30;8.40;;;;;;;18.54;60.22;101697.56;6100518;19;20010;-72
2023/06/10 04:40:01;;;;;;;13.85;8.90;;;;;;;18.64;59.77;101695.16;6100965;19;20010;-72
2023/06/10 04:42:09;;;;;;;15.43;7.97;;;;;;;18.70;59.42;101697.47;6098922;19;20677;-72
2023/06/10 04:44:14;;;;;;;16.38;7.78;;;;;;;18.80;59.22;101698.66;6102271;19;20011;-72
2023/06/10 04:46:19;;;;;;;17.10;8.18;;;;;;;18.91;58.96;101698.00;6097805;19;20007;-73
2023/06/10 04:48:24;;;;;;;17.60;8.52;;;;;;;19.04;58.45;101708.75;6097816;19;20739;-72
2023/06/10 04:50:32;;;;;;;18.52;8.35;;;;;;;19.08;58.22;101695.13;6097661;19;20039;-72
2023/06/10 04:52:38;;;;;;;15.65;7.95;;;;;;;19.16;58.46;101699.13;6096055;19;20003;-72
2023/06/10 04:54:43;;;;;;;15.75;7.78;;;;;;;19.28;57.73;101696.53;6096239;19;20006;-72
2023/06/10 04:56:48;;;;;;;17.48;8.55;;;;;;;19.38;57.52;101699.47;6094474;19;20459;-73
2023/06/10 04:59:00;;;;;;;16.05;7.93;;;;;;;19.51;57.15;101704.88;6100116;19;20010;-72
2023/06/10 05:01:08;;;;;;;21.55;9.32;;;;;;;19.59;56.94;101702.56;6098894;19;20026;-73
2023/06/10 05:03:16;;;;;;;19.05;8.00;;;;;;;19.68;56.89;101695.81;6096801;19;20530;-72
2023/06/10 05:05:21;;;;;;;19.65;8.48;;;;;;;19.77;56.32;101699.69;6099003;19;20806;-72
2023/06/10 05:07:26;;;;;;;15.77;8.18;;;;;;;19.93;56.23;101703.03;6099792;19;20028;-72
2023/06/10 05:09:32;;;;;;;16.90;8.50;;;;;;;20.04;55.68;101702.34;6099537;19;20474;-73
2023/06/10 05:11:38;;;;;;;14.85;8.13;;;;;;;20.18;55.58;101699.59;6098509;19;20039;-72
2023/06/10 05:13:44;;;;;;;18.80;8.50;;;;;;;20.18;54.99;101700.44;6100570;19;20007;-72
2023/06/10 05:15:54;;;;;;;16.27;8.25;;;;;;;20.31;54.83;101695.16;6098951;19;20328;-73
2023/06/10 05:18:02;;;;;;;15.68;8.07;;;;;;;20.41;55.04;101699.88;6096624;19;20342;-72
2023/06/10 05:20:08;;;;;;;15.48;8.10;;;;;;;20.50;54.45;101699.22;6096243;19;20468;-73
2023/06/10 05:22:16;;;;;;;18.48;8.00;;;;;;;20.66;54.53;101699.06;6103264;19;20006;-74
2023/06/10 05:24:21;;;;;;;15.48;7.75;;;;;;;20.74;53.92;101696.69;6103173;19;20479;-73
2023/06/10 05:26:26;;;;;;;17.67;8.18;;;;;;;20.90;53.90;101702.66;6101452;19;20504;-72
2023/06/10 05:28:35;;;;;;;18.13;8.80;;;;;;;20.94;53.48;101704.19;6099893;19;20011;-72
2023/06/10 05:30:41;;;;;;;17.52;8.35;;;;;;;21.09;53.67;101704.03;6102974;19;20688;-72
2023/06/10 05:32:48;;;;;;;18.25;8.30;;;;;;;21.19;53.23;101699.75;6100648;19;20030;-74
2023/06/10 05:34:53;;;;;;;21.05;8.90;;;;;;;21.32;53.16;101702.41;6095133;19;20003;-73
2023/06/10 05:36:58;;;;;;;21.00;9.32;;;;;;;21.38;52.58;101696.63;6098438;19;20087;-73
2023/06/10 05:39:03;;;;;;;18.73;7.97;;;;;;;21.47;52.57;101702.19;6100054;19;20020;-73
2023/06/10 05:41:09;;;;;;;18.20;8.95;;;;;;;21.51;52.46;101697.44;6095109;19;20003;-73
2023/06/10 05:43:14;;;;;;;18.80;8.63;;;;;;;21.65;51.85;101693.78;6100055;19;20017;-74
2023/06/10 05:45:19;;;;;;;15.95;8.32;;;;;;;21.74;51.77;101698.44;6099950;19;20011;-73
2023/06/10 05:47:25;;;;;;;20.15;9.15;;;;;;;21.82;51.41;101701.38;6098668;19;20021;-73
2023/06/10 05:49:32;;;;;;;16.92;9.02;;;;;;;21.99;50.75;101701.97;6096464;19;20011;-74
2023/06/10 05:51:38;;;;;;;17.17;7.95;;;;;;;22.04;50.71;101699.81;6100559;19;20011;-73
2023/06/10 05:53:43;;;;;;;18.17;9.70;;;;;;;22.10;50.82;101707.38;6096839;19;20006;-73
2023/06/10 05:55:48;;;;;;;18.08;8.43;;;;;;;22.11;51.17;101709.06;6101825;19;20102;-75
2023/06/10 05:58:02;;;;;;;17.92;8.70;;;;;;;22.33;50.33;101700.31;6102009;19;20007;-74
2023/06/10 06:00:09;;;;;;;17.17;8.95;;;;;;;22.38;50.48;101703.50;6096407;19;20676;-73
2023/06/10 06:02:14;;;;;;;20.70;9.55;;;;;;;22.56;50.17;101695.81;6101314;19;20066;-73
2023/06/10 06:04:19;;;;;;;19.17;8.90;;;;;;;22.78;49.92;101700.38;6103187;19;20018;-73
2023/06/10 06:06:27;;;;;;;17.35;9.55;;;;;;;22.69;49.42;101706.44;6100213;19;20320;-74
2023/06/10 06:08:32;;;;;;;18.25;9.50;;;;;;;22.81;49.17;101700.13;6101667;19;20010;-72
2023/06/10 06:10:37;;;;;;;17.60;8.48;;;;;;;22.89;49.10;101704.91;6100639;19;20343;-73
2023/06/10 06:12:42;;;;;;;19.30;10.30;;;;;;;23.20;48.73;101698.84;6102423;19;20014;-74
2023/06/10 06:14:49;;;;;;;18.42;9.02;;;;;;;23.17;48.48;101704.44;6101666;19;20010;-73
2023/06/10 06:16:57;;;;;;;17.75;9.13;;;;;;;23.27;48.49;101698.31;6091294;19;20558;-73
2023/06/10 06:19:02;;;;;;;21.48;9.15;;;;;;;23.37;47.69;101699.28;6096577;19;20006;-73
2023/06/10 06:21:07;;;;;;;20.35;9.73;;;;;;;23.00;47.54;101707.59;6101675;19;20010;-73
2023/06/10 06:23:14;;;;;;;17.08;9.35;;;;;;;23.18;48.07;101697.25;6100449;19;20015;-73
2023/06/10 06:25:19;;;;;;;17.30;8.73;;;;;;;23.51;47.48;101703.53;6099772;19;20035;-72
2023/06/10 06:27:27;;;;;;;20.58;9.45;;;;;;;23.52;46.95;101697.19;6101702;19;20636;-74
2023/06/10 06:29:32;;;;;;;19.35;8.80;;;;;;;23.76;46.90;101700.56;6099568;19;20605;-73
2023/06/10 06:31:38;;;;;;;20.77;9.50;;;;;;;23.65;47.05;101706.78;6102374;19;20082;-73
2023/06/10 06:33:43;;;;;;;19.15;9.48;;;;;;;23.80;47.02;101701.16;6100106;19;20007;-74
2023/06/10 06:35:48;;;;;;;19.08;8.93;;;;;;;24.21;46.18;101710.28;6099235;19;20039;-72
2023/06/10 06:37:53;;;;;;;21.30;9.70;;;;;;;24.14;46.20;101709.94;6099473;19;20017;-74
2023/06/10 06:40:01;;;;;;;17.00;9.00;;;;;;;24.13;46.06;101702.00;6097794;19;20511;-73
2023/06/10 06:42:08;;;;;;;19.17;9.60;;;;;;;24.16;45.97;101701.75;6074533;19;20500;-72
2023/06/10 06:44:14;;;;;;;18.83;9.00;;;;;;;24.45;46.02;101710.06;6097450;19;20011;-73
2023/06/10 06:46:19;;;;;;;17.02;9.45;;;;;;;24.66;45.92;101710.03;6102682;19;20125;-73
2023/06/10 06:48:24;;;;;;;16.63;9.73;;;;;;;24.47;45.13;101713.47;6099973;19;20011;-73
2023/06/10 06:50:31;;;;;;;17.20;9.50;;;;;;;24.69;44.77;101718.69;6098880;19;20019;-73
2023/06/10 06:52:36;;;;;;;17.60;9.80;;;;;;;24.72;44.76;101712.19;6099706;19;20423;-73
2023/06/10 06:54:42;;;;;;;16.73;9.40;;;;;;;25.01;44.67;101716.84;6105703;19;20880;-73
2023/06/10 06:56:50;;;;;;;18.17;10.43;;;;;;;24.76;43.39;101713.63;6105657;19;20022;-73
2023/06/10 06:58:54;;;;;;;19.80;10.02;;;;;;;24.58;44.47;101712.53;6100920;19;20484;-73
2023/06/10 07:01:02;;;;;;;18.77;9.55;;;;;;;24.89;43.80;101719.66;6100737;19;20014;-73
2023/06/10 07:03:07;;;;;;;20.17;10.20;;;;;;;24.98;43.93;101726.88;6098508;19;20028;-71
2023/06/10 07:05:13;;;;;;;19.45;9.75;;;;;;;25.33;43.06;101727.47;6104805;19;20011;-74
2023/06/10 07:07:18;;;;;;;18.77;9.75;;;;;;;25.25;42.89;101725.50;6100525;19;20030;-72
2023/06/10 07:09:28;;;;;;;18.92;9.00;;;;;;;25.54;43.33;101719.31;6101709;19;20070;-72
2023/06/10 07:11:33;;;;;;;16.50;9.00;;;;;;;25.60;42.61;101724.16;6101097;19;20015;-73
2023/06/10 07:13:41;;;;;;;17.42;9.30;;;;;;;25.65;42.40;101721.91;6102258;19;20523;-73
2023/06/10 07:15:45;;;;;;;20.63;9.65;;;;;;;25.94;42.17;101715.75;6099384;19;20098;-73
2023/06/10 07:17:51;;;;;;;20.65;10.18;;;;;;;25.69;41.89;101720.63;6101869;19;20026;-72
2023/06/10 07:19:57;;;;;;;19.38;8.88;;;;;;;25.95;41.26;101712.03;6107048;19;20080;-73
2023/06/10 07:22:02;;;;;;;18.33;10.00;;;;;;;25.91;41.63;101716.88;6107745;19;20039;-72
2023/06/10 07:24:08;;;;;;;17.33;9.73;;;;;;;26.24;41.77;101717.44;6106098;19;20118;-72
2023/06/10 07:26:13;;;;;;;17.48;9.98;;;;;;;26.35;40.81;101728.03;6101958;19;20007;-74
2023/06/10 07:28:18;;;;;;;18.52;10.00;;;;;;;26.26;41.61;101715.44;6102778;19;20006;-72
2023/06/10 07:30:28;;;;;;;19.13;9.40;;;;;;;26.55;40.68;101714.59;6106801;19;20066;-73
2023/06/10 07:32:33;;;;;;;17.70;9.80;;;;;;;26.76;40.28;101717.09;6106307;19;20010;-72
2023/06/10 07:34:39;;;;;;;16.40;9.32;;;;;;;26.58;40.04;101707.03;6108806;19;20078;-72
2023/06/10 07:36:44;;;;;;;15.65;9.32;;;;;;;26.82;39.55;101709.25;6106310;19;20019;-73
2023/06/10 07:38:51;;;;;;;15.65;9.05;;;;;;;26.90;39.14;101713.91;6103837;19;20015;-74
2023/06/10 07:40:57;;;;;;;17.75;8.82;;;;;;;27.00;39.43;101720.09;6106605;19;20135;-75
2023/06/10 07:43:02;;;;;;;19.85;8.85;;;;;;;26.97;39.15;101712.31;6103214;19;20113;-72
2023/06/10 07:45:08;;;;;;;22.85;9.95;;;;;;;26.84;39.31;101714.50;6104983;19;20003;-73
2023/06/10 07:47:16;;;;;;;21.83;10.38;;;;;;;27.22;38.79;101718.06;6103211;19;20455;-73
2023/06/10 07:49:24;;;;;;;16.55;8.73;;;;;;;27.27;39.13;101716.59;6095966;19;20347;-73
2023/06/10 07:51:32;;;;;;;15.02;8.80;;;;;;;27.37;38.61;101727.34;6098447;19;20279;-74
2023/06/10 07:53:37;;;;;;;17.08;8.65;;;;;;;27.57;38.20;101723.53;6093362;19;20006;-74
2023/06/10 07:55:42;;;;;;;17.23;8.70;;;;;;;27.92;38.13;101718.34;6101533;19;20051;-73
2023/06/10 07:57:47;;;;;;;18.52;9.40;;;;;;;27.63;37.88;101721.25;6104050;19;20251;-74
2023/06/10 07:59:54;;;;;;;14.80;8.77;;;;;;;27.55;37.57;101717.44;6102995;19;20011;-73
2023/06/10 08:02:00;;;;;;;17.75;9.38;;;;;;;27.50;37.94;101718.91;6103756;19;20010;-73
2023/06/10 08:04:09;;;;;;;16.85;8.85;;;;;;;27.93;37.47;101707.38;6100819;19;20407;-73
2023/06/10 08:06:14;;;;;;;17.63;9.23;;;;;;;28.23;36.87;101713.41;6099760;19;20089;-74
2023/06/10 08:08:19;;;;;;;18.52;9.15;;;;;;;28.11;37.10;101711.94;6096448;19;20427;-74
2023/06/10 08:10:24;;;;;;;18.65;9.43;;;;;;;28.14;37.31;101717.03;6095832;19;20022;-73
2023/06/10 08:12:29;;;;;;;16.83;9.10;;;;;;;28.89;36.82;101714.72;6096153;19;20010;-73
2023/06/10 08:14:36;;;;;;;16.48;9.10;;;;;;;28.89;35.58;101717.41;6095790;19;20733;-72
2023/06/10 08:16:41;;;;;;;18.02;8.68;;;;;;;29.18;35.96;101721.66;6093328;19;20010;-73
2023/06/10 08:18:46;;;;;;;15.25;8.77;;;;;;;28.88;35.44;101716.56;6098249;19;20632;-72
2023/06/10 08:20:54;;;;;;;17.10;9.15;;;;;;;28.92;35.01;101722.50;6096262;19;20784;-73
2023/06/10 08:23:00;;;;;;;20.80;9.65;;;;;;;29.13;35.78;101715.88;6093805;19;20019;-71
2023/06/10 08:25:06;;;;;;;17.23;9.00;;;;;;;28.92;34.50;101717.09;6093535;19;20307;-72
2023/06/10 08:27:11;;;;;;;19.48;9.68;;;;;;;28.66;34.57;101717.09;6096409;19;20015;-72
2023/06/10 08:29:18;;;;;;;17.95;9.43;;;;;;;28.72;35.99;101724.56;6095111;19;20014;-74
2023/06/10 08:31:25;;;;;;;14.65;8.73;;;;;;;28.80;34.84;101727.31;6094519;19;20275;-75
2023/06/10 08:33:32;;;;;;;19.13;10.35;;;;;;;28.66;35.90;101728.75;6093290;19;20015;-78
2023/06/10 08:35:37;;;;;;;16.83;8.75;;;;;;;28.96;35.41;101725.72;6095900;19;20010;-74
2023/06/10 08:37:45;;;;;;;24.20;9.60;;;;;;;29.27;35.24;101721.50;6100118;19;20440;-77
2023/06/10 08:39:50;;;;;;;15.75;9.32;;;;;;;29.72;34.27;101719.44;6095668;19;20003;-77
2023/06/10 08:42:08;;;;;;;13.10;8.07;;;;;;;29.82;33.76;101722.84;6095987;19;20298;-77
2023/06/10 08:44:20;;;;;;;12.68;8.13;;;;;;;29.94;33.95;101721.53;6098232;19;20002;-75
2023/06/10 08:46:25;;;;;;;17.17;9.20;;;;;;;30.34;33.64;101727.16;6100579;19;20043;-76
2023/06/10 08:48:32;;;;;;;18.23;9.80;;;;;;;29.99;33.42;101723.75;6093494;19;20023;-73
2023/06/10 08:50:38;;;;;;;12.80;8.63;;;;;;;30.35;33.64;101718.00;6101253;19;20021;-72
2023/06/10 08:52:50;;;;;;;14.35;8.70;;;;;;;30.14;32.98;101718.47;6091585;19;20010;-72
2023/06/10 08:54:59;;;;;;;13.95;8.45;;;;;;;30.25;32.48;101718.16;6097093;19;20011;-72
2023/06/10 08:57:08;;;;;;;14.23;8.82;;;;;;;30.07;32.43;101723.75;6096878;19;19999;-71
2023/06/10 08:59:16;;;;;;;16.88;9.70;;;;;;;29.72;33.35;101724.88;6098782;19;20745;-70
2023/06/10 09:01:21;;;;;;;17.27;9.30;;;;;;;29.97;33.43;101723.06;6096680;19;20011;-72
2023/06/10 09:03:31;;;;;;;16.35;8.45;;;;;;;29.93;33.86;101732.53;6097544;19;20014;-72
2023/06/10 09:05:38;;;;;;;14.38;8.68;;;;;;;30.09;33.99;101724.41;6095655;19;20003;-72
2023/06/10 09:07:50;;;;;;;13.60;7.72;;;;;;;30.54;33.52;101725.75;6096520;19;20002;-72
2023/06/10 09:09:57;;;;;;;16.37;9.43;;;;;;;30.43;32.92;101726.13;6101067;19;20108;-73
2023/06/10 09:12:03;;;;;;;14.93;8.43;;;;;;;30.41;33.52;101728.16;6089889;19;20678;-71
2023/06/10 09:14:08;;;;;;;14.40;8.55;;;;;;;30.48;33.28;101723.72;6094954;19;20451;-71
2023/06/10 09:16:13;;;;;;;16.38;8.40;;;;;;;30.65;32.81;101726.41;6097381;19;20510;-72
2023/06/10 09:18:18;;;;;;;12.88;8.13;;;;;;;30.67;32.00;101722.50;6098922;19;20403;-72
2023/06/10 09:20:24;;;;;;;14.80;8.20;;;;;;;30.80;31.29;101719.25;6102093;19;20062;-72
2023/06/10 09:22:29;;;;;;;15.88;8.30;;;;;;;30.84;31.75;101724.22;6100130;19;20049;-72
2023/06/10 09:24:37;;;;;;;14.23;8.10;;;;;;;30.71;31.92;101717.59;6103034;19;20845;-72
2023/06/10 09:26:43;;;;;;;14.93;8.55;;;;;;;30.74;32.10;101722.69;6103717;19;20330;-72
2023/06/10 09:28:51;;;;;;;16.20;8.10;;;;;;;31.09;32.40;101720.56;6103275;19;20021;-73
2023/06/10 09:31:07;;;;;;;13.43;7.32;;;;;;;31.27;31.64;101719.28;6102167;19;20010;-72
2023/06/10 09:33:15;;;;;;;13.82;7.95;;;;;;;31.26;31.37;101727.63;6097572;19;20007;-72
2023/06/10 09:35:24;;;;;;;14.27;7.60;;;;;;;30.93;31.96;101722.31;6103702;19;20354;-72
2023/06/10 09:37:32;;;;;;;14.20;8.25;;;;;;;31.33;30.81;101725.88;6101802;19;20296;-72
2023/06/10 09:39:41;;;;;;;12.93;7.95;;;;;;;31.23;31.42;101727.97;6101917;19;20555;-72